Bookmark and Share
Track history (hours):
 

Heinz Schepers

Last reported at 2014-Apr-24 10:32 UTC. Time now 2014-Apr-24 11:27 UTC.
Position N 36°05' E 029°06'.

Length 101 m; draft 5.3 m.

Type: Cargo ship. MMSI: 304596000.

NotesDate/timePositionNaut miles runAvg speedWind from/ knotsBaromVisibWave heightAir tempDewpointWater temp
2014-Apr-24 10:32N 36°05' E 029°06'10314.8
2014-Apr-24 03:33N 35°17' E 030°59'1514.9
2014-Apr-24 02:33N 35°10' E 031°15'5814.4
2014-Apr-23 22:32N 34°42' E 032°17'1313.7
2014-Apr-23 21:33N 34°37' E 032°32'1414.4
2014-Apr-23 20:34N 34°33' E 032°49'1211.9
2014-Apr-23 19:33N 34°36' E 033°03'4 2.7
2014-Apr-23 18:11N 34°39' E 033°01'0 0.0
2014-Apr-23 17:32N 34°39' E 033°01'0 0.0
2014-Apr-23 16:32N 34°39' E 033°01'0 0.0
2014-Apr-23 15:28N 34°39' E 033°01'0 0.0
2014-Apr-23 14:28N 34°39' E 033°01'0 0.0
2014-Apr-23 13:31N 34°39' E 033°01'0 0.0
2014-Apr-23 12:22N 34°39' E 033°01'0 0.0
2014-Apr-23 11:31N 34°39' E 033°01'0 0.0
2014-Apr-23 10:25N 34°39' E 033°01'0 0.0
2014-Apr-23 09:33N 34°39' E 033°01'0 0.0
2014-Apr-23 08:33N 34°39' E 033°01'0 0.0
2014-Apr-23 07:33N 34°39' E 033°01'0 0.0
2014-Apr-23 06:30N 34°39' E 033°01'0 0.0
2014-Apr-23 05:30N 34°39' E 033°01'0 0.0
2014-Apr-23 04:33N 34°39' E 033°01'0 0.1
2014-Apr-23 03:34N 34°39' E 033°01'3 3.1
2014-Apr-23 02:31N 34°40' E 033°04'0 0.0
2014-Apr-23 01:31N 34°40' E 033°04'0 0.0
2014-Apr-23 00:31N 34°40' E 033°04'0 0.0
2014-Apr-22 23:31N 34°40' E 033°04'0 0.0
2014-Apr-22 22:25N 34°40' E 033°04'0 0.0
2014-Apr-22 21:31N 34°40' E 033°04'0 0.0
2014-Apr-22 20:31N 34°40' E 033°04'0 0.0
2014-Apr-22 19:31N 34°40' E 033°04'0 0.1
2014-Apr-22 18:31N 34°40' E 033°04'0 0.0
2014-Apr-22 17:31N 34°40' E 033°04'0 0.0
2014-Apr-22 16:31N 34°40' E 033°04'1 1.6
2014-Apr-22 15:33N 34°40' E 033°06'1111.4
2014-Apr-22 14:33N 34°32' E 032°56'1413.7
2014-Apr-22 13:33N 34°35' E 032°40'1414.1
2014-Apr-22 12:32N 34°40' E 032°23'1914.2
2014-Apr-22 11:13N 34°49' E 032°04'22712.8
2014-Apr-21 17:33N 36°30' E 027°53'1313.0
2014-Apr-21 16:33N 36°34' E 027°38'1313.1
2014-Apr-21 15:33N 36°39' E 027°23'1611.2
2014-Apr-21 14:10N 36°54' E 027°21'813.0
2014-Apr-21 13:32N 36°58' E 027°12'1312.8
2014-Apr-21 12:32N 37°07' E 027°00'1313.2
2014-Apr-21 11:33N 37°18' E 026°52'1313.2
2014-Apr-21 10:33N 37°29' E 026°43'1412.8
2014-Apr-21 09:27N 37°41' E 026°33'2412.7
2014-Apr-21 07:33N 37°49' E 026°04'2612.8
2014-Apr-21 05:33N 38°06' E 025°40'  
2014-Apr-16 23:21N 34°42' E 032°19'1114.2
2014-Apr-16 22:33N 34°38' E 032°31'1414.2
2014-Apr-16 21:33N 34°34' E 032°48'1312.9
2014-Apr-16 20:33N 34°34' E 033°04'5 5.3
2014-Apr-16 19:33N 34°39' E 033°01'0 0.0
2014-Apr-16 18:33N 34°39' E 033°01'0 0.0
2014-Apr-16 17:33N 34°39' E 033°01'0 0.0
2014-Apr-16 16:33N 34°39' E 033°01'0 0.0
2014-Apr-16 15:33N 34°39' E 033°01'0 0.0
2014-Apr-16 14:33N 34°39' E 033°01'0 0.0
2014-Apr-16 13:33N 34°39' E 033°01'0 0.0
2014-Apr-16 12:33N 34°39' E 033°01'0 0.0
2014-Apr-16 11:33N 34°39' E 033°01'0 0.0
2014-Apr-16 10:33N 34°39' E 033°01'0 0.0
2014-Apr-16 09:33N 34°39' E 033°01'0 0.0
2014-Apr-16 08:33N 34°39' E 033°01'0 0.0
2014-Apr-16 07:33N 34°39' E 033°01'0 0.0
2014-Apr-16 06:33N 34°39' E 033°01'0 0.0
2014-Apr-16 05:33N 34°39' E 033°01'0 0.0
2014-Apr-16 04:33N 34°39' E 033°01'0 0.3
2014-Apr-16 03:33N 34°39' E 033°02'3 2.8
2014-Apr-16 02:32N 34°41' E 033°04'0 0.0
2014-Apr-16 01:29N 34°41' E 033°04'0 0.0
2014-Apr-16 00:32N 34°41' E 033°04'0 0.0
2014-Apr-15 23:31N 34°41' E 033°04'0 0.0
2014-Apr-15 22:31N 34°41' E 033°04'0 0.0
2014-Apr-15 21:31N 34°41' E 033°04'0 0.0
2014-Apr-15 20:31N 34°41' E 033°04'0 0.0
2014-Apr-15 19:31N 34°41' E 033°04'0 0.0
2014-Apr-15 18:31N 34°41' E 033°04'0 0.0
2014-Apr-15 17:31N 34°41' E 033°04'0 0.0
2014-Apr-15 16:31N 34°41' E 033°04'0 0.0
2014-Apr-15 15:31N 34°41' E 033°04'0 0.0
2014-Apr-15 14:31N 34°41' E 033°04'0 0.0
2014-Apr-15 12:32N 34°41' E 033°04'0 0.0
2014-Apr-15 11:32N 34°41' E 033°04'0 0.0
2014-Apr-15 10:32N 34°41' E 033°04'0 0.0
2014-Apr-15 09:32N 34°41' E 033°04'0 0.0
2014-Apr-15 08:32N 34°41' E 033°04'0 0.0
2014-Apr-15 07:31N 34°41' E 033°04'0 0.0
2014-Apr-15 06:31N 34°41' E 033°04'0 0.0
2014-Apr-15 05:31N 34°41' E 033°04'0 0.0
2014-Apr-15 03:31N 34°41' E 033°04'2 2.1
2014-Apr-15 02:34N 34°39' E 033°05'1110.9
2014-Apr-15 01:34N 34°32' E 032°54'1413.7
2014-Apr-15 00:34N 34°36' E 032°38'  

Dump ship's entire track history

sailing weather and tide predictions

Heinz Schepers — V2OM7 — position and weather